sensor_id;sensor_type;location;lat;lon;timestamp;P1;durP1;ratioP1;P2;durP2;ratioP2
50853;SDS011;44154;45.506;-122.806;2022-11-12T00:00:42;0.68;;;0.40;;
50853;SDS011;44154;45.506;-122.806;2022-11-12T00:03:09;1.08;;;0.40;;
50853;SDS011;44154;45.506;-122.806;2022-11-12T00:05:35;0.60;;;0.30;;
50853;SDS011;44154;45.506;-122.806;2022-11-12T00:08:02;1.00;;;0.47;;
50853;SDS011;44154;45.506;-122.806;2022-11-12T00:10:29;0.77;;;0.50;;
50853;SDS011;44154;45.506;-122.806;2022-11-12T00:12:56;1.30;;;0.57;;
50853;SDS011;44154;45.506;-122.806;2022-11-12T00:15:22;3.63;;;0.68;;
50853;SDS011;44154;45.506;-122.806;2022-11-12T00:17:50;1.38;;;0.50;;
50853;SDS011;44154;45.506;-122.806;2022-11-12T00:20:16;0.98;;;0.38;;
50853;SDS011;44154;45.506;-122.806;2022-11-12T00:22:43;0.82;;;0.40;;
50853;SDS011;44154;45.506;-122.806;2022-11-12T00:25:09;1.80;;;0.60;;
50853;SDS011;44154;45.506;-122.806;2022-11-12T00:27:35;0.63;;;0.30;;
50853;SDS011;44154;45.506;-122.806;2022-11-12T00:30:02;2.42;;;0.40;;
50853;SDS011;44154;45.506;-122.806;2022-11-12T00:32:29;1.52;;;0.40;;
50853;SDS011;44154;45.506;-122.806;2022-11-12T00:34:55;1.42;;;0.32;;
50853;SDS011;44154;45.506;-122.806;2022-11-12T00:37:21;2.13;;;0.40;;
50853;SDS011;44154;45.506;-122.806;2022-11-12T00:39:49;2.25;;;0.47;;
50853;SDS011;44154;45.506;-122.806;2022-11-12T00:42:15;1.35;;;0.40;;
50853;SDS011;44154;45.506;-122.806;2022-11-12T00:44:41;3.70;;;0.73;;
50853;SDS011;44154;45.506;-122.806;2022-11-12T00:47:07;4.43;;;0.98;;
50853;SDS011;44154;45.506;-122.806;2022-11-12T00:49:34;2.15;;;0.50;;
50853;SDS011;44154;45.506;-122.806;2022-11-12T00:52:00;3.60;;;0.60;;
50853;SDS011;44154;45.506;-122.806;2022-11-12T00:54:26;1.95;;;0.57;;
50853;SDS011;44154;45.506;-122.806;2022-11-12T00:56:52;3.63;;;1.17;;
50853;SDS011;44154;45.506;-122.806;2022-11-12T00:59:18;5.55;;;0.63;;
50853;SDS011;44154;45.506;-122.806;2022-11-12T01:01:45;2.17;;;0.57;;
50853;SDS011;44154;45.506;-122.806;2022-11-12T01:04:11;2.47;;;0.50;;
50853;SDS011;44154;45.506;-122.806;2022-11-12T01:06:38;2.85;;;0.70;;
50853;SDS011;44154;45.506;-122.806;2022-11-12T01:09:07;2.72;;;0.80;;
50853;SDS011;44154;45.506;-122.806;2022-11-12T01:11:34;2.65;;;0.85;;
50853;SDS011;44154;45.506;-122.806;2022-11-12T01:14:02;1.85;;;0.80;;
50853;SDS011;44154;45.506;-122.806;2022-11-12T01:16:33;4.10;;;1.90;;
50853;SDS011;44154;45.506;-122.806;2022-11-12T01:19:01;5.57;;;2.25;;
50853;SDS011;44154;45.506;-122.806;2022-11-12T01:21:29;4.70;;;2.50;;
50853;SDS011;44154;45.506;-122.806;2022-11-12T01:23:58;4.20;;;2.70;;
50853;SDS011;44154;45.506;-122.806;2022-11-12T01:26:25;4.00;;;2.58;;
50853;SDS011;44154;45.506;-122.806;2022-11-12T01:28:55;4.97;;;2.88;;
50853;SDS011;44154;45.506;-122.806;2022-11-12T01:31:23;6.32;;;2.45;;
50853;SDS011;44154;45.506;-122.806;2022-11-12T01:33:52;4.00;;;2.25;;
50853;SDS011;44154;45.506;-122.806;2022-11-12T01:36:20;8.07;;;2.63;;
50853;SDS011;44154;45.506;-122.806;2022-11-12T01:38:47;4.50;;;2.58;;
50853;SDS011;44154;45.506;-122.806;2022-11-12T01:41:15;6.53;;;2.85;;
50853;SDS011;44154;45.506;-122.806;2022-11-12T01:43:44;5.70;;;2.58;;
50853;SDS011;44154;45.506;-122.806;2022-11-12T01:46:16;6.00;;;2.58;;
50853;SDS011;44154;45.506;-122.806;2022-11-12T01:48:53;5.78;;;3.45;;
50853;SDS011;44154;45.506;-122.806;2022-11-12T01:51:23;7.15;;;3.55;;
50853;SDS011;44154;45.506;-122.806;2022-11-12T01:53:56;20.55;;;6.88;;
50853;SDS011;44154;45.506;-122.806;2022-11-12T01:56:26;11.05;;;5.18;;
50853;SDS011;44154;45.506;-122.806;2022-11-12T01:58:57;7.35;;;3.67;;
50853;SDS011;44154;45.506;-122.806;2022-11-12T02:01:28;15.38;;;5.78;;
50853;SDS011;44154;45.506;-122.806;2022-11-12T02:03:55;15.32;;;5.65;;
50853;SDS011;44154;45.506;-122.806;2022-11-12T02:06:21;14.25;;;4.85;;
50853;SDS011;44154;45.506;-122.806;2022-11-12T02:08:49;15.75;;;5.63;;
50853;SDS011;44154;45.506;-122.806;2022-11-12T02:11:17;13.43;;;5.35;;
50853;SDS011;44154;45.506;-122.806;2022-11-12T02:13:46;16.33;;;5.75;;
50853;SDS011;44154;45.506;-122.806;2022-11-12T02:16:58;11.80;;;4.80;;
50853;SDS011;44154;45.506;-122.806;2022-11-12T02:19:17;8.97;;;4.67;;
50853;SDS011;44154;45.506;-122.806;2022-11-12T02:21:44;8.82;;;4.10;;
50853;SDS011;44154;45.506;-122.806;2022-11-12T02:26:37;8.98;;;3.90;;
50853;SDS011;44154;45.506;-122.806;2022-11-12T02:29:07;9.40;;;4.53;;
50853;SDS011;44154;45.506;-122.806;2022-11-12T02:31:33;8.50;;;4.32;;
50853;SDS011;44154;45.506;-122.806;2022-11-12T02:34:00;8.80;;;4.53;;
50853;SDS011;44154;45.506;-122.806;2022-11-12T02:36:26;9.25;;;4.20;;
50853;SDS011;44154;45.506;-122.806;2022-11-12T02:38:53;8.07;;;4.13;;
50853;SDS011;44154;45.506;-122.806;2022-11-12T02:41:19;8.82;;;4.55;;
50853;SDS011;44154;45.506;-122.806;2022-11-12T02:43:46;6.95;;;3.88;;
50853;SDS011;44154;45.506;-122.806;2022-11-12T02:46:12;6.32;;;4.15;;
50853;SDS011;44154;45.506;-122.806;2022-11-12T02:48:39;7.18;;;4.15;;
50853;SDS011;44154;45.506;-122.806;2022-11-12T02:51:05;7.60;;;3.53;;
50853;SDS011;44154;45.506;-122.806;2022-11-12T02:53:32;9.50;;;4.55;;
50853;SDS011;44154;45.506;-122.806;2022-11-12T02:55:59;8.32;;;4.78;;
50853;SDS011;44154;45.506;-122.806;2022-11-12T02:58:25;7.97;;;3.92;;
50853;SDS011;44154;45.506;-122.806;2022-11-12T03:00:52;6.93;;;4.30;;
50853;SDS011;44154;45.506;-122.806;2022-11-12T03:03:19;5.57;;;3.35;;
50853;SDS011;44154;45.506;-122.806;2022-11-12T03:05:53;5.47;;;3.30;;
50853;SDS011;44154;45.506;-122.806;2022-11-12T03:08:21;6.28;;;3.20;;
50853;SDS011;44154;45.506;-122.806;2022-11-12T03:10:47;6.25;;;3.30;;
50853;SDS011;44154;45.506;-122.806;2022-11-12T03:13:14;6.20;;;2.95;;
50853;SDS011;44154;45.506;-122.806;2022-11-12T03:15:40;6.82;;;3.25;;
50853;SDS011;44154;45.506;-122.806;2022-11-12T03:18:06;4.55;;;3.10;;
50853;SDS011;44154;45.506;-122.806;2022-11-12T03:20:33;4.78;;;2.75;;
50853;SDS011;44154;45.506;-122.806;2022-11-12T03:23:03;4.93;;;3.15;;
50853;SDS011;44154;45.506;-122.806;2022-11-12T03:25:31;6.90;;;3.17;;
50853;SDS011;44154;45.506;-122.806;2022-11-12T03:30:29;5.68;;;3.08;;
50853;SDS011;44154;45.506;-122.806;2022-11-12T03:33:00;10.43;;;5.07;;
50853;SDS011;44154;45.506;-122.806;2022-11-12T03:35:26;31.98;;;14.48;;
50853;SDS011;44154;45.506;-122.806;2022-11-12T03:37:53;12.73;;;7.93;;
50853;SDS011;44154;45.506;-122.806;2022-11-12T03:40:19;12.70;;;6.70;;
50853;SDS011;44154;45.506;-122.806;2022-11-12T03:42:46;10.52;;;5.70;;
50853;SDS011;44154;45.506;-122.806;2022-11-12T03:45:15;10.50;;;6.05;;
50853;SDS011;44154;45.506;-122.806;2022-11-12T03:47:42;11.45;;;6.25;;
50853;SDS011;44154;45.506;-122.806;2022-11-12T03:50:10;10.43;;;5.60;;
50853;SDS011;44154;45.506;-122.806;2022-11-12T03:52:37;10.32;;;5.20;;
50853;SDS011;44154;45.506;-122.806;2022-11-12T03:55:04;10.13;;;6.03;;
50853;SDS011;44154;45.506;-122.806;2022-11-12T03:57:31;10.68;;;5.82;;
50853;SDS011;44154;45.506;-122.806;2022-11-12T03:59:57;12.20;;;5.80;;
50853;SDS011;44154;45.506;-122.806;2022-11-12T04:02:23;9.60;;;5.15;;
50853;SDS011;44154;45.506;-122.806;2022-11-12T04:04:52;8.88;;;4.90;;
50853;SDS011;44154;45.506;-122.806;2022-11-12T04:07:37;9.05;;;5.18;;
50853;SDS011;44154;45.506;-122.806;2022-11-12T04:10:21;6.97;;;4.53;;
50853;SDS011;44154;45.506;-122.806;2022-11-12T04:12:47;7.05;;;4.55;;
50853;SDS011;44154;45.506;-122.806;2022-11-12T04:15:32;8.63;;;4.80;;
50853;SDS011;44154;45.506;-122.806;2022-11-12T04:17:58;7.95;;;4.38;;
50853;SDS011;44154;45.506;-122.806;2022-11-12T04:20:43;8.65;;;4.55;;
50853;SDS011;44154;45.506;-122.806;2022-11-12T04:23:27;7.68;;;4.47;;
50853;SDS011;44154;45.506;-122.806;2022-11-12T04:25:53;8.00;;;4.65;;
50853;SDS011;44154;45.506;-122.806;2022-11-12T04:28:38;8.05;;;4.10;;
50853;SDS011;44154;45.506;-122.806;2022-11-12T04:31:24;11.45;;;4.20;;
50853;SDS011;44154;45.506;-122.806;2022-11-12T04:33:50;6.80;;;3.33;;
50853;SDS011;44154;45.506;-122.806;2022-11-12T04:36:16;6.82;;;3.40;;
50853;SDS011;44154;45.506;-122.806;2022-11-12T04:38:43;7.32;;;4.05;;
50853;SDS011;44154;45.506;-122.806;2022-11-12T04:41:09;7.55;;;4.00;;
50853;SDS011;44154;45.506;-122.806;2022-11-12T04:43:54;5.50;;;3.75;;
50853;SDS011;44154;45.506;-122.806;2022-11-12T04:46:38;6.25;;;3.30;;
50853;SDS011;44154;45.506;-122.806;2022-11-12T04:49:04;4.45;;;3.05;;
50853;SDS011;44154;45.506;-122.806;2022-11-12T04:51:30;6.50;;;3.10;;
50853;SDS011;44154;45.506;-122.806;2022-11-12T04:54:16;4.88;;;2.78;;
50853;SDS011;44154;45.506;-122.806;2022-11-12T04:56:43;3.78;;;2.70;;
50853;SDS011;44154;45.506;-122.806;2022-11-12T04:59:09;4.63;;;3.33;;
50853;SDS011;44154;45.506;-122.806;2022-11-12T05:01:35;5.28;;;3.08;;
50853;SDS011;44154;45.506;-122.806;2022-11-12T05:04:01;4.65;;;3.03;;
50853;SDS011;44154;45.506;-122.806;2022-11-12T05:06:27;6.43;;;2.63;;
50853;SDS011;44154;45.506;-122.806;2022-11-12T05:09:12;8.23;;;3.33;;
50853;SDS011;44154;45.506;-122.806;2022-11-12T05:11:38;4.55;;;3.22;;
50853;SDS011;44154;45.506;-122.806;2022-11-12T05:14:04;3.70;;;2.50;;
50853;SDS011;44154;45.506;-122.806;2022-11-12T05:16:30;3.80;;;2.58;;
50853;SDS011;44154;45.506;-122.806;2022-11-12T05:18:56;3.55;;;2.60;;
50853;SDS011;44154;45.506;-122.806;2022-11-12T05:21:22;5.13;;;2.47;;
50853;SDS011;44154;45.506;-122.806;2022-11-12T05:24:07;4.07;;;2.60;;
50853;SDS011;44154;45.506;-122.806;2022-11-12T05:26:33;3.65;;;3.00;;
50853;SDS011;44154;45.506;-122.806;2022-11-12T05:29:00;4.93;;;3.10;;
50853;SDS011;44154;45.506;-122.806;2022-11-12T05:31:26;4.35;;;3.15;;
50853;SDS011;44154;45.506;-122.806;2022-11-12T05:33:53;4.60;;;3.13;;
50853;SDS011;44154;45.506;-122.806;2022-11-12T05:36:19;4.57;;;3.53;;
50853;SDS011;44154;45.506;-122.806;2022-11-12T05:38:45;5.47;;;3.58;;
50853;SDS011;44154;45.506;-122.806;2022-11-12T05:41:12;4.85;;;3.47;;
50853;SDS011;44154;45.506;-122.806;2022-11-12T05:43:38;3.75;;;2.53;;
50853;SDS011;44154;45.506;-122.806;2022-11-12T05:46:04;4.38;;;2.70;;
50853;SDS011;44154;45.506;-122.806;2022-11-12T05:48:31;3.17;;;2.40;;
50853;SDS011;44154;45.506;-122.806;2022-11-12T05:50:57;3.88;;;2.40;;
50853;SDS011;44154;45.506;-122.806;2022-11-12T05:53:24;3.90;;;2.80;;
50853;SDS011;44154;45.506;-122.806;2022-11-12T05:55:50;3.63;;;2.80;;
50853;SDS011;44154;45.506;-122.806;2022-11-12T05:58:16;3.33;;;2.42;;
50853;SDS011;44154;45.506;-122.806;2022-11-12T06:00:43;3.55;;;2.42;;
50853;SDS011;44154;45.506;-122.806;2022-11-12T06:03:10;3.53;;;2.22;;
50853;SDS011;44154;45.506;-122.806;2022-11-12T06:05:37;3.75;;;2.40;;
50853;SDS011;44154;45.506;-122.806;2022-11-12T06:08:04;3.70;;;2.63;;
50853;SDS011;44154;45.506;-122.806;2022-11-12T06:10:31;3.67;;;2.80;;
50853;SDS011;44154;45.506;-122.806;2022-11-12T06:12:58;3.00;;;2.30;;
50853;SDS011;44154;45.506;-122.806;2022-11-12T06:15:24;3.03;;;2.00;;
50853;SDS011;44154;45.506;-122.806;2022-11-12T06:17:53;3.70;;;2.17;;
50853;SDS011;44154;45.506;-122.806;2022-11-12T06:20:20;2.80;;;2.05;;
50853;SDS011;44154;45.506;-122.806;2022-11-12T06:22:47;3.38;;;2.17;;
50853;SDS011;44154;45.506;-122.806;2022-11-12T06:25:14;3.58;;;1.95;;
50853;SDS011;44154;45.506;-122.806;2022-11-12T06:27:41;4.38;;;2.25;;
50853;SDS011;44154;45.506;-122.806;2022-11-12T06:30:08;3.28;;;2.28;;
50853;SDS011;44154;45.506;-122.806;2022-11-12T06:32:34;3.08;;;2.17;;
50853;SDS011;44154;45.506;-122.806;2022-11-12T06:35:01;2.92;;;1.90;;
50853;SDS011;44154;45.506;-122.806;2022-11-12T06:37:27;3.83;;;2.45;;
50853;SDS011;44154;45.506;-122.806;2022-11-12T06:39:53;4.57;;;2.45;;
50853;SDS011;44154;45.506;-122.806;2022-11-12T06:42:19;5.30;;;3.03;;
50853;SDS011;44154;45.506;-122.806;2022-11-12T06:44:45;4.07;;;2.25;;
50853;SDS011;44154;45.506;-122.806;2022-11-12T06:47:12;4.13;;;2.92;;
50853;SDS011;44154;45.506;-122.806;2022-11-12T06:49:38;3.97;;;2.60;;
50853;SDS011;44154;45.506;-122.806;2022-11-12T06:52:04;4.30;;;2.90;;
50853;SDS011;44154;45.506;-122.806;2022-11-12T06:54:30;4.15;;;3.22;;
50853;SDS011;44154;45.506;-122.806;2022-11-12T06:56:56;4.90;;;2.90;;
50853;SDS011;44154;45.506;-122.806;2022-11-12T06:59:22;4.75;;;3.08;;
50853;SDS011;44154;45.506;-122.806;2022-11-12T07:01:49;4.53;;;3.25;;
50853;SDS011;44154;45.506;-122.806;2022-11-12T07:04:15;4.97;;;3.25;;
50853;SDS011;44154;45.506;-122.806;2022-11-12T07:06:41;5.60;;;3.05;;
50853;SDS011;44154;45.506;-122.806;2022-11-12T07:09:07;5.85;;;3.75;;
50853;SDS011;44154;45.506;-122.806;2022-11-12T07:11:34;4.47;;;3.08;;
50853;SDS011;44154;45.506;-122.806;2022-11-12T07:14:00;5.20;;;3.60;;
50853;SDS011;44154;45.506;-122.806;2022-11-12T07:16:26;5.07;;;3.83;;
50853;SDS011;44154;45.506;-122.806;2022-11-12T07:18:52;3.80;;;2.70;;
50853;SDS011;44154;45.506;-122.806;2022-11-12T07:21:19;4.43;;;3.47;;
50853;SDS011;44154;45.506;-122.806;2022-11-12T07:23:45;5.45;;;3.50;;
50853;SDS011;44154;45.506;-122.806;2022-11-12T07:26:22;5.25;;;3.88;;
50853;SDS011;44154;45.506;-122.806;2022-11-12T07:28:51;5.00;;;3.97;;
50853;SDS011;44154;45.506;-122.806;2022-11-12T07:31:21;5.38;;;3.55;;
50853;SDS011;44154;45.506;-122.806;2022-11-12T07:33:47;4.93;;;4.20;;
50853;SDS011;44154;45.506;-122.806;2022-11-12T07:36:14;19.23;;;10.73;;
50853;SDS011;44154;45.506;-122.806;2022-11-12T07:38:42;12.32;;;7.68;;
50853;SDS011;44154;45.506;-122.806;2022-11-12T07:41:13;12.40;;;8.07;;
50853;SDS011;44154;45.506;-122.806;2022-11-12T07:43:44;14.20;;;8.48;;
50853;SDS011;44154;45.506;-122.806;2022-11-12T07:46:14;14.32;;;7.32;;
50853;SDS011;44154;45.506;-122.806;2022-11-12T07:48:45;10.10;;;6.57;;
50853;SDS011;44154;45.506;-122.806;2022-11-12T07:51:19;8.85;;;5.70;;
50853;SDS011;44154;45.506;-122.806;2022-11-12T07:53:47;7.53;;;5.40;;
50853;SDS011;44154;45.506;-122.806;2022-11-12T07:56:15;6.78;;;4.70;;
50853;SDS011;44154;45.506;-122.806;2022-11-12T07:58:43;6.80;;;4.80;;
50853;SDS011;44154;45.506;-122.806;2022-11-12T08:01:23;7.55;;;4.53;;
50853;SDS011;44154;45.506;-122.806;2022-11-12T08:03:50;8.07;;;5.03;;
50853;SDS011;44154;45.506;-122.806;2022-11-12T08:06:16;6.80;;;4.45;;
50853;SDS011;44154;45.506;-122.806;2022-11-12T08:08:43;6.68;;;4.95;;
50853;SDS011;44154;45.506;-122.806;2022-11-12T08:11:09;6.95;;;4.40;;
50853;SDS011;44154;45.506;-122.806;2022-11-12T08:13:35;7.60;;;4.10;;
50853;SDS011;44154;45.506;-122.806;2022-11-12T08:16:01;8.25;;;4.97;;
50853;SDS011;44154;45.506;-122.806;2022-11-12T08:18:28;9.13;;;4.38;;
50853;SDS011;44154;45.506;-122.806;2022-11-12T08:20:59;8.20;;;4.50;;
50853;SDS011;44154;45.506;-122.806;2022-11-12T08:23:26;8.23;;;4.40;;
50853;SDS011;44154;45.506;-122.806;2022-11-12T08:25:56;8.85;;;4.40;;
50853;SDS011;44154;45.506;-122.806;2022-11-12T08:28:23;7.78;;;4.40;;
50853;SDS011;44154;45.506;-122.806;2022-11-12T08:30:50;6.03;;;4.35;;
50853;SDS011;44154;45.506;-122.806;2022-11-12T08:33:16;5.75;;;3.72;;
50853;SDS011;44154;45.506;-122.806;2022-11-12T08:35:42;5.43;;;3.20;;
50853;SDS011;44154;45.506;-122.806;2022-11-12T08:38:09;4.63;;;3.10;;
50853;SDS011;44154;45.506;-122.806;2022-11-12T08:40:35;5.80;;;3.40;;
50853;SDS011;44154;45.506;-122.806;2022-11-12T08:43:02;4.93;;;2.95;;
50853;SDS011;44154;45.506;-122.806;2022-11-12T08:45:31;6.22;;;3.35;;
50853;SDS011;44154;45.506;-122.806;2022-11-12T08:47:59;4.05;;;2.50;;
50853;SDS011;44154;45.506;-122.806;2022-11-12T08:50:30;5.45;;;3.25;;
50853;SDS011;44154;45.506;-122.806;2022-11-12T08:53:03;5.32;;;2.90;;
50853;SDS011;44154;45.506;-122.806;2022-11-12T08:55:35;4.05;;;2.58;;
50853;SDS011;44154;45.506;-122.806;2022-11-12T08:58:02;4.43;;;2.92;;
50853;SDS011;44154;45.506;-122.806;2022-11-12T09:00:29;5.35;;;3.22;;
50853;SDS011;44154;45.506;-122.806;2022-11-12T09:03:01;5.30;;;2.85;;
50853;SDS011;44154;45.506;-122.806;2022-11-12T09:05:28;4.75;;;2.70;;
50853;SDS011;44154;45.506;-122.806;2022-11-12T09:08:02;4.03;;;2.60;;
50853;SDS011;44154;45.506;-122.806;2022-11-12T09:10:30;4.72;;;3.30;;
50853;SDS011;44154;45.506;-122.806;2022-11-12T09:12:57;4.53;;;3.25;;
50853;SDS011;44154;45.506;-122.806;2022-11-12T09:15:24;4.68;;;2.80;;
50853;SDS011;44154;45.506;-122.806;2022-11-12T09:18:33;4.10;;;2.72;;
50853;SDS011;44154;45.506;-122.806;2022-11-12T09:20:41;3.40;;;2.08;;
50853;SDS011;44154;45.506;-122.806;2022-11-12T09:23:11;3.63;;;2.28;;
50853;SDS011;44154;45.506;-122.806;2022-11-12T09:25:39;3.55;;;2.13;;
50853;SDS011;44154;45.506;-122.806;2022-11-12T09:28:10;2.97;;;2.28;;
50853;SDS011;44154;45.506;-122.806;2022-11-12T09:30:41;3.72;;;2.38;;
50853;SDS011;44154;45.506;-122.806;2022-11-12T09:35:37;3.30;;;2.10;;
50853;SDS011;44154;45.506;-122.806;2022-11-12T09:38:03;3.35;;;2.08;;
50853;SDS011;44154;45.506;-122.806;2022-11-12T09:40:40;4.60;;;2.70;;
50853;SDS011;44154;45.506;-122.806;2022-11-12T09:46:18;4.10;;;2.42;;
50853;SDS011;44154;45.506;-122.806;2022-11-12T09:51:42;2.73;;;1.83;;
50853;SDS011;44154;45.506;-122.806;2022-11-12T09:54:18;3.70;;;1.92;;
50853;SDS011;44154;45.506;-122.806;2022-11-12T09:56:48;2.60;;;1.80;;
50853;SDS011;44154;45.506;-122.806;2022-11-12T09:59:16;3.67;;;2.05;;
50853;SDS011;44154;45.506;-122.806;2022-11-12T10:06:58;4.00;;;2.20;;
50853;SDS011;44154;45.506;-122.806;2022-11-12T10:09:35;3.67;;;2.30;;
50853;SDS011;44154;45.506;-122.806;2022-11-12T10:12:28;3.72;;;2.08;;
50853;SDS011;44154;45.506;-122.806;2022-11-12T10:20:55;2.90;;;2.00;;
50853;SDS011;44154;45.506;-122.806;2022-11-12T10:23:50;2.67;;;1.80;;
50853;SDS011;44154;45.506;-122.806;2022-11-12T10:26:20;2.38;;;1.67;;
50853;SDS011;44154;45.506;-122.806;2022-11-12T10:31:43;2.60;;;1.73;;
50853;SDS011;44154;45.506;-122.806;2022-11-12T10:36:38;4.20;;;1.80;;
50853;SDS011;44154;45.506;-122.806;2022-11-12T10:39:08;2.78;;;2.00;;
50853;SDS011;44154;45.506;-122.806;2022-11-12T10:41:34;2.58;;;1.63;;
50853;SDS011;44154;45.506;-122.806;2022-11-12T10:44:04;2.97;;;2.05;;
50853;SDS011;44154;45.506;-122.806;2022-11-12T10:46:38;2.97;;;2.00;;
50853;SDS011;44154;45.506;-122.806;2022-11-12T10:49:05;2.78;;;2.15;;
50853;SDS011;44154;45.506;-122.806;2022-11-12T10:51:40;2.50;;;1.67;;
50853;SDS011;44154;45.506;-122.806;2022-11-12T10:56:53;2.83;;;1.58;;
50853;SDS011;44154;45.506;-122.806;2022-11-12T10:59:20;2.42;;;1.60;;
50853;SDS011;44154;45.506;-122.806;2022-11-12T11:01:56;2.65;;;1.70;;
50853;SDS011;44154;45.506;-122.806;2022-11-12T11:07:02;2.67;;;1.60;;
50853;SDS011;44154;45.506;-122.806;2022-11-12T11:09:51;2.08;;;1.40;;
50853;SDS011;44154;45.506;-122.806;2022-11-12T11:12:23;2.00;;;1.45;;
50853;SDS011;44154;45.506;-122.806;2022-11-12T11:17:50;3.90;;;2.03;;
50853;SDS011;44154;45.506;-122.806;2022-11-12T11:20:24;2.72;;;2.00;;
50853;SDS011;44154;45.506;-122.806;2022-11-12T11:22:58;1.85;;;1.50;;
50853;SDS011;44154;45.506;-122.806;2022-11-12T11:25:33;2.05;;;1.38;;
50853;SDS011;44154;45.506;-122.806;2022-11-12T11:30:48;2.20;;;1.23;;
50853;SDS011;44154;45.506;-122.806;2022-11-12T11:34:03;2.33;;;1.55;;
50853;SDS011;44154;45.506;-122.806;2022-11-12T11:36:39;1.67;;;1.30;;
50853;SDS011;44154;45.506;-122.806;2022-11-12T11:39:37;2.15;;;1.50;;
50853;SDS011;44154;45.506;-122.806;2022-11-12T11:42:22;2.00;;;1.60;;
50853;SDS011;44154;45.506;-122.806;2022-11-12T11:47:56;2.33;;;1.60;;
50853;SDS011;44154;45.506;-122.806;2022-11-12T11:50:26;2.08;;;1.42;;
50853;SDS011;44154;45.506;-122.806;2022-11-12T11:56:24;1.95;;;1.60;;
50853;SDS011;44154;45.506;-122.806;2022-11-12T11:59:02;2.10;;;1.30;;
50853;SDS011;44154;45.506;-122.806;2022-11-12T12:01:48;2.00;;;1.38;;
50853;SDS011;44154;45.506;-122.806;2022-11-12T12:07:20;1.92;;;1.40;;
50853;SDS011;44154;45.506;-122.806;2022-11-12T12:10:12;1.95;;;1.40;;
50853;SDS011;44154;45.506;-122.806;2022-11-12T12:13:03;1.90;;;1.38;;
50853;SDS011;44154;45.506;-122.806;2022-11-12T12:16:04;2.22;;;1.40;;
50853;SDS011;44154;45.506;-122.806;2022-11-12T12:21:29;2.22;;;1.70;;
50853;SDS011;44154;45.506;-122.806;2022-11-12T12:26:47;1.65;;;1.30;;
50853;SDS011;44154;45.506;-122.806;2022-11-12T12:29:46;1.40;;;1.00;;
50853;SDS011;44154;45.506;-122.806;2022-11-12T12:34:55;1.70;;;1.20;;
50853;SDS011;44154;45.506;-122.806;2022-11-12T12:40:17;1.73;;;1.30;;
50853;SDS011;44154;45.506;-122.806;2022-11-12T12:45:44;1.45;;;1.23;;
50853;SDS011;44154;45.506;-122.806;2022-11-12T12:48:16;2.38;;;1.63;;
50853;SDS011;44154;45.506;-122.806;2022-11-12T12:50:47;2.20;;;1.70;;
50853;SDS011;44154;45.506;-122.806;2022-11-12T12:53:17;2.20;;;1.58;;
50853;SDS011;44154;45.506;-122.806;2022-11-12T12:55:50;1.80;;;1.40;;
50853;SDS011;44154;45.506;-122.806;2022-11-12T13:01:26;1.83;;;1.50;;
50853;SDS011;44154;45.506;-122.806;2022-11-12T13:09:25;1.67;;;1.27;;
50853;SDS011;44154;45.506;-122.806;2022-11-12T13:11:56;2.08;;;1.27;;
50853;SDS011;44154;45.506;-122.806;2022-11-12T13:40:24;2.50;;;1.45;;
50853;SDS011;44154;45.506;-122.806;2022-11-12T13:42:57;1.45;;;1.02;;
50853;SDS011;44154;45.506;-122.806;2022-11-12T13:45:30;1.50;;;1.00;;
50853;SDS011;44154;45.506;-122.806;2022-11-12T13:48:06;1.92;;;1.17;;
50853;SDS011;44154;45.506;-122.806;2022-11-12T13:50:37;1.70;;;1.52;;
50853;SDS011;44154;45.506;-122.806;2022-11-12T13:53:06;2.17;;;1.40;;
50853;SDS011;44154;45.506;-122.806;2022-11-12T13:55:34;1.40;;;1.00;;
50853;SDS011;44154;45.506;-122.806;2022-11-12T13:58:00;1.48;;;1.10;;
50853;SDS011;44154;45.506;-122.806;2022-11-12T14:00:27;1.67;;;1.10;;
50853;SDS011;44154;45.506;-122.806;2022-11-12T14:03:03;1.45;;;0.95;;
50853;SDS011;44154;45.506;-122.806;2022-11-12T14:05:32;2.88;;;1.35;;
50853;SDS011;44154;45.506;-122.806;2022-11-12T14:13:34;1.42;;;1.10;;
50853;SDS011;44154;45.506;-122.806;2022-11-12T14:22:26;1.60;;;1.08;;
50853;SDS011;44154;45.506;-122.806;2022-11-12T14:25:11;1.95;;;1.30;;
50853;SDS011;44154;45.506;-122.806;2022-11-12T14:27:38;1.60;;;1.40;;
50853;SDS011;44154;45.506;-122.806;2022-11-12T14:32:46;1.60;;;1.20;;
50853;SDS011;44154;45.506;-122.806;2022-11-12T14:37:59;2.40;;;1.73;;
50853;SDS011;44154;45.506;-122.806;2022-11-12T14:40:34;2.10;;;1.60;;
50853;SDS011;44154;45.506;-122.806;2022-11-12T14:43:03;1.60;;;1.35;;
50853;SDS011;44154;45.506;-122.806;2022-11-12T14:45:30;2.13;;;1.40;;
50853;SDS011;44154;45.506;-122.806;2022-11-12T14:47:56;1.58;;;1.27;;
50853;SDS011;44154;45.506;-122.806;2022-11-12T14:52:51;2.45;;;1.35;;
50853;SDS011;44154;45.506;-122.806;2022-11-12T14:55:23;1.70;;;1.20;;
50853;SDS011;44154;45.506;-122.806;2022-11-12T14:57:52;1.73;;;1.35;;
50853;SDS011;44154;45.506;-122.806;2022-11-12T15:02:59;2.42;;;1.70;;
50853;SDS011;44154;45.506;-122.806;2022-11-12T15:05:26;2.00;;;1.42;;
50853;SDS011;44154;45.506;-122.806;2022-11-12T15:07:54;1.80;;;1.45;;
50853;SDS011;44154;45.506;-122.806;2022-11-12T15:10:31;2.17;;;1.52;;
50853;SDS011;44154;45.506;-122.806;2022-11-12T15:13:15;2.28;;;1.40;;
50853;SDS011;44154;45.506;-122.806;2022-11-12T15:18:30;2.22;;;1.48;;
50853;SDS011;44154;45.506;-122.806;2022-11-12T15:21:43;1.52;;;1.15;;
50853;SDS011;44154;45.506;-122.806;2022-11-12T15:24:35;1.60;;;1.30;;
50853;SDS011;44154;45.506;-122.806;2022-11-12T15:26:43;1.98;;;1.20;;
50853;SDS011;44154;45.506;-122.806;2022-11-12T15:34:33;1.75;;;1.10;;
50853;SDS011;44154;45.506;-122.806;2022-11-12T15:39:49;2.97;;;1.50;;
50853;SDS011;44154;45.506;-122.806;2022-11-12T15:42:24;1.98;;;1.15;;
50853;SDS011;44154;45.506;-122.806;2022-11-12T15:44:59;2.35;;;1.27;;
50853;SDS011;44154;45.506;-122.806;2022-11-12T15:47:28;3.53;;;1.40;;
50853;SDS011;44154;45.506;-122.806;2022-11-12T15:49:55;3.25;;;1.58;;
50853;SDS011;44154;45.506;-122.806;2022-11-12T15:52:25;2.13;;;1.20;;
50853;SDS011;44154;45.506;-122.806;2022-11-12T15:54:52;1.88;;;1.00;;
50853;SDS011;44154;45.506;-122.806;2022-11-12T15:57:22;1.40;;;1.00;;
50853;SDS011;44154;45.506;-122.806;2022-11-12T16:00:02;1.95;;;1.05;;
50853;SDS011;44154;45.506;-122.806;2022-11-12T16:02:31;1.48;;;0.90;;
50853;SDS011;44154;45.506;-122.806;2022-11-12T16:04:58;0.82;;;0.70;;
50853;SDS011;44154;45.506;-122.806;2022-11-12T16:07:25;2.65;;;0.90;;
50853;SDS011;44154;45.506;-122.806;2022-11-12T16:09:51;1.42;;;0.90;;
50853;SDS011;44154;45.506;-122.806;2022-11-12T16:12:18;1.42;;;0.70;;
50853;SDS011;44154;45.506;-122.806;2022-11-12T16:14:44;1.58;;;0.50;;
50853;SDS011;44154;45.506;-122.806;2022-11-12T16:17:12;1.50;;;0.55;;
50853;SDS011;44154;45.506;-122.806;2022-11-12T16:19:40;0.88;;;0.77;;
50853;SDS011;44154;45.506;-122.806;2022-11-12T16:22:06;1.23;;;0.80;;
50853;SDS011;44154;45.506;-122.806;2022-11-12T16:24:37;0.90;;;0.70;;
50853;SDS011;44154;45.506;-122.806;2022-11-12T16:27:04;1.05;;;0.68;;
50853;SDS011;44154;45.506;-122.806;2022-11-12T16:29:33;1.38;;;0.60;;
50853;SDS011;44154;45.506;-122.806;2022-11-12T16:32:00;1.00;;;0.60;;
50853;SDS011;44154;45.506;-122.806;2022-11-12T16:34:27;1.42;;;0.55;;
50853;SDS011;44154;45.506;-122.806;2022-11-12T16:36:53;0.90;;;0.70;;